メインページ
METAR-TAF:

METAR-TAF

空港 :

フォール=ド=フランス, マルティニーク

マルティニーク・エメ・セゼール国際空港

緯度: 14-36N, 経度: 061-00W, 海抜: 5m

現時点の気象観測

当レポートは31分前の17:00(UTC)に作成
東/南東の風 10kt、から南東の間で変化する
気温 33°C
湿度 63%
気圧 1012 hPa
視程10km以上
高度3200ftの雲はほとんどない

METAR: TFFF 231700Z AUTO 12010KT 080V140 9999 FEW032 33/25 Q1012 TEMPO 4000 SHRA SCT018TCU

時間: 13:31 (17:31 UTC)

予報

当レポートは6時間31分前の11:00(UTC)に作成
予報は23日の 12時(UTC)から 24日の 12時(UTC)まで有効
の風 8kt
視程10km以上
高度2500ftの雲は散在している
確率 30%
23日の 18時(UTC)から 23日の 24時(UTC)まで
視程: 4000m
高度1800ftの雲は散在している, 塔状積雲.
にわか雨
確率 30%
24日の 06時(UTC)から 24日の 12時(UTC)まで
視程: 4000m
高度1800ftの雲は散在している, 塔状積雲.
にわか雨

TAF: TFFF 231100Z 2312/2412 08008KT 9999 SCT025 PROB30 2318/2324 4000 SHRA SCT018TCU PROB30 2406/2412 4000 SHRA SCT018TCU

4,000以上の空港の気象観測と天気予報(METAR報とTAF報)

利用可能な観測所は地図上に黄色い丸と赤い丸で示す。

丸の上にカーソルを重ねると観測所名を参照できる。

次にクリックすると気象観測と天気予報を参照できる。

マップの切り替え:黒色「×」印の緑ボタンをクリックして拡大、「-」印の緑ボタンをクリックして縮小、緑色の三角印をクリックして隣りの地図に切り替え


METAR-TAF: